sensor_id;sensor_type;location;lat;lon;timestamp;temperature;humidity
76384;SHT30;65204;48.606;7.598;2023-03-23T00:00:24;17.83;45.80
76384;SHT30;65204;48.606;7.598;2023-03-23T00:00:55;17.83;45.54
76384;SHT30;65204;48.606;7.598;2023-03-23T00:01:25;17.83;45.78
76384;SHT30;65204;48.606;7.598;2023-03-23T00:01:56;17.81;45.90
76384;SHT30;65204;48.606;7.598;2023-03-23T00:02:28;17.81;46.14
76384;SHT30;65204;48.606;7.598;2023-03-23T00:02:59;17.77;46.39
76384;SHT30;65204;48.606;7.598;2023-03-23T00:03:29;17.76;46.35
76384;SHT30;65204;48.606;7.598;2023-03-23T00:04:02;17.76;46.48
76384;SHT30;65204;48.606;7.598;2023-03-23T00:04:33;17.73;46.45
76384;SHT30;65204;48.606;7.598;2023-03-23T00:05:04;17.74;46.35
76384;SHT30;65204;48.606;7.598;2023-03-23T00:05:38;17.77;46.74
76384;SHT30;65204;48.606;7.598;2023-03-23T00:06:11;17.73;46.87
76384;SHT30;65204;48.606;7.598;2023-03-23T00:06:47;17.76;46.91
76384;SHT30;65204;48.606;7.598;2023-03-23T00:07:17;17.73;46.95
76384;SHT30;65204;48.606;7.598;2023-03-23T00:07:51;17.76;46.83
76384;SHT30;65204;48.606;7.598;2023-03-23T00:08:25;17.74;46.65
76384;SHT30;65204;48.606;7.598;2023-03-23T00:08:56;17.74;46.48
76384;SHT30;65204;48.606;7.598;2023-03-23T00:09:29;17.71;46.30
76384;SHT30;65204;48.606;7.598;2023-03-23T00:10:00;17.73;46.31
76384;SHT30;65204;48.606;7.598;2023-03-23T00:10:34;17.71;46.41
76384;SHT30;65204;48.606;7.598;2023-03-23T00:11:05;17.74;46.10
76384;SHT30;65204;48.606;7.598;2023-03-23T00:11:35;17.76;45.67
76384;SHT30;65204;48.606;7.598;2023-03-23T00:12:06;17.77;45.85
76384;SHT30;65204;48.606;7.598;2023-03-23T00:12:36;17.74;45.71
76384;SHT30;65204;48.606;7.598;2023-03-23T00:13:07;17.74;45.64
76384;SHT30;65204;48.606;7.598;2023-03-23T00:13:37;17.76;45.82
76384;SHT30;65204;48.606;7.598;2023-03-23T00:14:09;17.74;46.00
76384;SHT30;65204;48.606;7.598;2023-03-23T00:14:42;17.76;46.29
76384;SHT30;65204;48.606;7.598;2023-03-23T00:15:13;17.71;46.33
76384;SHT30;65204;48.606;7.598;2023-03-23T00:15:46;17.74;46.18
76384;SHT30;65204;48.606;7.598;2023-03-23T00:16:21;17.76;46.29
76384;SHT30;65204;48.606;7.598;2023-03-23T00:16:59;17.77;46.36
76384;SHT30;65204;48.606;7.598;2023-03-23T00:17:30;17.77;46.47
76384;SHT30;65204;48.606;7.598;2023-03-23T00:18:03;17.76;46.55
76384;SHT30;65204;48.606;7.598;2023-03-23T00:18:35;17.76;46.26
76384;SHT30;65204;48.606;7.598;2023-03-23T00:19:07;17.76;46.25
76384;SHT30;65204;48.606;7.598;2023-03-23T00:19:38;17.76;46.35
76384;SHT30;65204;48.606;7.598;2023-03-23T00:20:17;17.77;46.53
76384;SHT30;65204;48.606;7.598;2023-03-23T00:20:49;17.77;46.48
76384;SHT30;65204;48.606;7.598;2023-03-23T00:21:24;17.76;46.65
76384;SHT30;65204;48.606;7.598;2023-03-23T00:21:55;17.76;46.68
76384;SHT30;65204;48.606;7.598;2023-03-23T00:22:25;17.76;46.66
76384;SHT30;65204;48.606;7.598;2023-03-23T00:22:56;17.74;46.79
76384;SHT30;65204;48.606;7.598;2023-03-23T00:23:30;17.76;46.68
76384;SHT30;65204;48.606;7.598;2023-03-23T00:24:08;17.74;46.68
76384;SHT30;65204;48.606;7.598;2023-03-23T00:24:40;17.71;46.33
76384;SHT30;65204;48.606;7.598;2023-03-23T00:25:10;17.71;46.29
76384;SHT30;65204;48.606;7.598;2023-03-23T00:25:40;17.76;46.44
76384;SHT30;65204;48.606;7.598;2023-03-23T00:26:11;17.74;46.46
76384;SHT30;65204;48.606;7.598;2023-03-23T00:26:44;17.74;46.66
76384;SHT30;65204;48.606;7.598;2023-03-23T00:27:15;17.73;46.51
76384;SHT30;65204;48.606;7.598;2023-03-23T00:27:45;17.71;46.51
76384;SHT30;65204;48.606;7.598;2023-03-23T00:28:16;17.70;46.23
76384;SHT30;65204;48.606;7.598;2023-03-23T00:28:46;17.73;46.26
76384;SHT30;65204;48.606;7.598;2023-03-23T00:29:20;17.73;46.25
76384;SHT30;65204;48.606;7.598;2023-03-23T00:29:53;17.71;46.20
76384;SHT30;65204;48.606;7.598;2023-03-23T00:30:24;17.70;46.31
76384;SHT30;65204;48.606;7.598;2023-03-23T00:30:59;17.69;46.37
76384;SHT30;65204;48.606;7.598;2023-03-23T00:31:31;17.69;46.60
76384;SHT30;65204;48.606;7.598;2023-03-23T00:32:02;17.67;46.75
76384;SHT30;65204;48.606;7.598;2023-03-23T00:32:33;17.69;46.62
76384;SHT30;65204;48.606;7.598;2023-03-23T00:33:03;17.69;46.58
76384;SHT30;65204;48.606;7.598;2023-03-23T00:33:35;17.67;46.54
76384;SHT30;65204;48.606;7.598;2023-03-23T00:34:10;17.67;46.74
76384;SHT30;65204;48.606;7.598;2023-03-23T00:34:42;17.67;46.40
76384;SHT30;65204;48.606;7.598;2023-03-23T00:35:14;17.69;46.35
76384;SHT30;65204;48.606;7.598;2023-03-23T00:35:44;17.69;46.35
76384;SHT30;65204;48.606;7.598;2023-03-23T00:36:14;17.70;46.37
76384;SHT30;65204;48.606;7.598;2023-03-23T00:36:53;17.67;46.44
76384;SHT30;65204;48.606;7.598;2023-03-23T00:37:27;17.67;46.30
76384;SHT30;65204;48.606;7.598;2023-03-23T00:37:57;17.66;46.06
76384;SHT30;65204;48.606;7.598;2023-03-23T00:38:28;17.66;46.13
76384;SHT30;65204;48.606;7.598;2023-03-23T00:38:59;17.66;46.32
76384;SHT30;65204;48.606;7.598;2023-03-23T00:39:30;17.65;46.44
76384;SHT30;65204;48.606;7.598;2023-03-23T00:40:02;17.63;46.37
76384;SHT30;65204;48.606;7.598;2023-03-23T00:40:36;17.66;46.10
76384;SHT30;65204;48.606;7.598;2023-03-23T00:41:07;17.65;46.10
76384;SHT30;65204;48.606;7.598;2023-03-23T00:41:38;17.66;46.23
76384;SHT30;65204;48.606;7.598;2023-03-23T00:42:08;17.66;46.37
76384;SHT30;65204;48.606;7.598;2023-03-23T00:42:38;17.66;46.26
76384;SHT30;65204;48.606;7.598;2023-03-23T00:43:09;17.69;46.51
76384;SHT30;65204;48.606;7.598;2023-03-23T00:43:43;17.66;46.59
76384;SHT30;65204;48.606;7.598;2023-03-23T00:44:14;17.65;46.41
76384;SHT30;65204;48.606;7.598;2023-03-23T00:44:46;17.65;46.15
76384;SHT30;65204;48.606;7.598;2023-03-23T00:45:17;17.67;46.25
76384;SHT30;65204;48.606;7.598;2023-03-23T00:45:47;17.65;46.32
76384;SHT30;65204;48.606;7.598;2023-03-23T00:46:23;17.66;46.40
76384;SHT30;65204;48.606;7.598;2023-03-23T00:46:54;17.63;46.44
76384;SHT30;65204;48.606;7.598;2023-03-23T00:47:26;17.65;46.55
76384;SHT30;65204;48.606;7.598;2023-03-23T00:47:57;17.65;46.66
76384;SHT30;65204;48.606;7.598;2023-03-23T00:48:31;17.63;46.73
76384;SHT30;65204;48.606;7.598;2023-03-23T00:49:02;17.65;46.62
76384;SHT30;65204;48.606;7.598;2023-03-23T00:49:33;17.63;46.51
76384;SHT30;65204;48.606;7.598;2023-03-23T00:50:05;17.62;46.55
76384;SHT30;65204;48.606;7.598;2023-03-23T00:50:35;17.63;46.42
76384;SHT30;65204;48.606;7.598;2023-03-23T00:51:06;17.65;46.47
76384;SHT30;65204;48.606;7.598;2023-03-23T00:51:42;17.65;46.55
76384;SHT30;65204;48.606;7.598;2023-03-23T00:52:12;17.63;46.49
76384;SHT30;65204;48.606;7.598;2023-03-23T00:52:43;17.60;46.55
76384;SHT30;65204;48.606;7.598;2023-03-23T00:53:13;17.62;46.53
76384;SHT30;65204;48.606;7.598;2023-03-23T00:53:44;17.62;46.64
76384;SHT30;65204;48.606;7.598;2023-03-23T00:54:15;17.63;46.49
76384;SHT30;65204;48.606;7.598;2023-03-23T00:54:45;17.65;46.45
76384;SHT30;65204;48.606;7.598;2023-03-23T00:55:16;17.63;46.33
76384;SHT30;65204;48.606;7.598;2023-03-23T00:55:47;17.63;46.45
76384;SHT30;65204;48.606;7.598;2023-03-23T00:56:18;17.65;46.60
76384;SHT30;65204;48.606;7.598;2023-03-23T00:56:48;17.60;46.59
76384;SHT30;65204;48.606;7.598;2023-03-23T00:57:19;17.60;46.53
76384;SHT30;65204;48.606;7.598;2023-03-23T00:57:50;17.62;46.53
76384;SHT30;65204;48.606;7.598;2023-03-23T00:58:21;17.62;46.56
76384;SHT30;65204;48.606;7.598;2023-03-23T00:58:51;17.60;46.50
76384;SHT30;65204;48.606;7.598;2023-03-23T00:59:21;17.63;46.44
76384;SHT30;65204;48.606;7.598;2023-03-23T00:59:52;17.65;46.47
76384;SHT30;65204;48.606;7.598;2023-03-23T01:00:22;17.62;46.47
76384;SHT30;65204;48.606;7.598;2023-03-23T01:00:53;17.63;46.52
76384;SHT30;65204;48.606;7.598;2023-03-23T01:01:24;17.63;46.62
76384;SHT30;65204;48.606;7.598;2023-03-23T01:01:54;17.60;46.68
76384;SHT30;65204;48.606;7.598;2023-03-23T01:02:25;17.60;46.66
76384;SHT30;65204;48.606;7.598;2023-03-23T01:02:56;17.62;46.66
76384;SHT30;65204;48.606;7.598;2023-03-23T01:03:26;17.62;46.68
76384;SHT30;65204;48.606;7.598;2023-03-23T01:03:59;17.60;46.69
76384;SHT30;65204;48.606;7.598;2023-03-23T01:04:34;17.60;46.70
76384;SHT30;65204;48.606;7.598;2023-03-23T01:05:07;17.59;46.83
76384;SHT30;65204;48.606;7.598;2023-03-23T01:05:39;17.59;47.01
76384;SHT30;65204;48.606;7.598;2023-03-23T01:06:10;17.59;46.98
76384;SHT30;65204;48.606;7.598;2023-03-23T01:06:44;17.57;46.87
76384;SHT30;65204;48.606;7.598;2023-03-23T01:07:14;17.57;47.22
76384;SHT30;65204;48.606;7.598;2023-03-23T01:07:48;17.54;47.29
76384;SHT30;65204;48.606;7.598;2023-03-23T01:08:19;17.54;47.37
76384;SHT30;65204;48.606;7.598;2023-03-23T01:08:49;17.51;47.54
76384;SHT30;65204;48.606;7.598;2023-03-23T01:09:20;17.51;47.73
76384;SHT30;65204;48.606;7.598;2023-03-23T01:09:51;17.50;47.61
76384;SHT30;65204;48.606;7.598;2023-03-23T01:10:23;17.50;47.72
76384;SHT30;65204;48.606;7.598;2023-03-23T01:11:05;17.50;48.05
76384;SHT30;65204;48.606;7.598;2023-03-23T01:11:35;17.50;47.70
76384;SHT30;65204;48.606;7.598;2023-03-23T01:12:07;17.49;47.89
76384;SHT30;65204;48.606;7.598;2023-03-23T01:12:39;17.49;47.84
76384;SHT30;65204;48.606;7.598;2023-03-23T01:13:09;17.47;48.04
76384;SHT30;65204;48.606;7.598;2023-03-23T01:13:40;17.47;47.81
76384;SHT30;65204;48.606;7.598;2023-03-23T01:14:13;17.47;47.94
76384;SHT30;65204;48.606;7.598;2023-03-23T01:14:44;17.46;48.10
76384;SHT30;65204;48.606;7.598;2023-03-23T01:15:16;17.46;47.88
76384;SHT30;65204;48.606;7.598;2023-03-23T01:15:47;17.46;48.09
76384;SHT30;65204;48.606;7.598;2023-03-23T01:16:17;17.46;48.13
76384;SHT30;65204;48.606;7.598;2023-03-23T01:16:48;17.46;47.97
76384;SHT30;65204;48.606;7.598;2023-03-23T01:17:18;17.45;47.96
76384;SHT30;65204;48.606;7.598;2023-03-23T01:17:49;17.43;48.14
76384;SHT30;65204;48.606;7.598;2023-03-23T01:18:20;17.43;47.99
76384;SHT30;65204;48.606;7.598;2023-03-23T01:18:51;17.42;48.10
76384;SHT30;65204;48.606;7.598;2023-03-23T01:19:21;17.40;47.88
76384;SHT30;65204;48.606;7.598;2023-03-23T01:19:51;17.43;48.10
76384;SHT30;65204;48.606;7.598;2023-03-23T01:20:23;17.43;48.12
76384;SHT30;65204;48.606;7.598;2023-03-23T01:20:53;17.43;47.98
76384;SHT30;65204;48.606;7.598;2023-03-23T01:21:24;17.43;47.78
76384;SHT30;65204;48.606;7.598;2023-03-23T01:21:55;17.45;47.83
76384;SHT30;65204;48.606;7.598;2023-03-23T01:22:25;17.47;47.90
76384;SHT30;65204;48.606;7.598;2023-03-23T01:22:55;17.45;47.77
76384;SHT30;65204;48.606;7.598;2023-03-23T01:23:32;17.43;47.83
76384;SHT30;65204;48.606;7.598;2023-03-23T01:24:03;17.43;47.66
76384;SHT30;65204;48.606;7.598;2023-03-23T01:24:33;17.46;47.72
76384;SHT30;65204;48.606;7.598;2023-03-23T01:25:05;17.46;47.77
76384;SHT30;65204;48.606;7.598;2023-03-23T01:25:36;17.46;47.72
76384;SHT30;65204;48.606;7.598;2023-03-23T01:26:10;17.46;47.77
76384;SHT30;65204;48.606;7.598;2023-03-23T01:26:40;17.43;48.04
76384;SHT30;65204;48.606;7.598;2023-03-23T01:27:11;17.43;47.97
76384;SHT30;65204;48.606;7.598;2023-03-23T01:27:41;17.42;48.23
76384;SHT30;65204;48.606;7.598;2023-03-23T01:28:12;17.40;48.19
76384;SHT30;65204;48.606;7.598;2023-03-23T01:28:43;17.42;48.07
76384;SHT30;65204;48.606;7.598;2023-03-23T01:29:13;17.42;48.06
76384;SHT30;65204;48.606;7.598;2023-03-23T01:29:44;17.45;47.98
76384;SHT30;65204;48.606;7.598;2023-03-23T01:30:14;17.42;48.05
76384;SHT30;65204;48.606;7.598;2023-03-23T01:30:44;17.40;47.95
76384;SHT30;65204;48.606;7.598;2023-03-23T01:31:20;17.42;48.03
76384;SHT30;65204;48.606;7.598;2023-03-23T01:31:51;17.42;48.13
76384;SHT30;65204;48.606;7.598;2023-03-23T01:32:21;17.40;48.13
76384;SHT30;65204;48.606;7.598;2023-03-23T01:32:52;17.39;48.13
76384;SHT30;65204;48.606;7.598;2023-03-23T01:33:22;17.39;47.98
76384;SHT30;65204;48.606;7.598;2023-03-23T01:33:53;17.38;48.01
76384;SHT30;65204;48.606;7.598;2023-03-23T01:34:25;17.35;48.10
76384;SHT30;65204;48.606;7.598;2023-03-23T01:34:55;17.38;48.00
76384;SHT30;65204;48.606;7.598;2023-03-23T01:35:26;17.38;48.48
76384;SHT30;65204;48.606;7.598;2023-03-23T01:35:56;17.39;48.26
76384;SHT30;65204;48.606;7.598;2023-03-23T01:36:28;17.40;48.50
76384;SHT30;65204;48.606;7.598;2023-03-23T01:37:02;17.38;48.19
76384;SHT30;65204;48.606;7.598;2023-03-23T01:37:32;17.40;48.13
76384;SHT30;65204;48.606;7.598;2023-03-23T01:38:03;17.36;48.05
76384;SHT30;65204;48.606;7.598;2023-03-23T01:38:34;17.35;48.02
76384;SHT30;65204;48.606;7.598;2023-03-23T01:39:05;17.35;48.13
76384;SHT30;65204;48.606;7.598;2023-03-23T01:39:36;17.38;48.34
76384;SHT30;65204;48.606;7.598;2023-03-23T01:40:08;17.38;48.34
76384;SHT30;65204;48.606;7.598;2023-03-23T01:40:38;17.33;48.64
76384;SHT30;65204;48.606;7.598;2023-03-23T01:41:09;17.36;48.52
76384;SHT30;65204;48.606;7.598;2023-03-23T01:41:40;17.35;48.50
76384;SHT30;65204;48.606;7.598;2023-03-23T01:42:11;17.36;48.37
76384;SHT30;65204;48.606;7.598;2023-03-23T01:42:42;17.38;48.31
76384;SHT30;65204;48.606;7.598;2023-03-23T01:43:14;17.36;48.52
76384;SHT30;65204;48.606;7.598;2023-03-23T01:45:22;17.35;48.60
76384;SHT30;65204;48.606;7.598;2023-03-23T01:45:53;17.32;48.55
76384;SHT30;65204;48.606;7.598;2023-03-23T01:46:26;17.32;48.35
76384;SHT30;65204;48.606;7.598;2023-03-23T01:46:57;17.32;48.46
76384;SHT30;65204;48.606;7.598;2023-03-23T01:47:27;17.32;48.52
76384;SHT30;65204;48.606;7.598;2023-03-23T01:48:03;17.33;48.69
76384;SHT30;65204;48.606;7.598;2023-03-23T01:48:36;17.26;48.55
76384;SHT30;65204;48.606;7.598;2023-03-23T01:49:14;17.29;48.36
76384;SHT30;65204;48.606;7.598;2023-03-23T01:49:47;17.25;48.40
76384;SHT30;65204;48.606;7.598;2023-03-23T01:50:20;17.25;48.75
76384;SHT30;65204;48.606;7.598;2023-03-23T01:51:12;17.25;48.88
76384;SHT30;65204;48.606;7.598;2023-03-23T01:51:49;17.23;49.01
76384;SHT30;65204;48.606;7.598;2023-03-23T01:52:24;17.23;49.12
76384;SHT30;65204;48.606;7.598;2023-03-23T01:52:57;17.20;49.25
76384;SHT30;65204;48.606;7.598;2023-03-23T01:53:31;17.18;48.95
76384;SHT30;65204;48.606;7.598;2023-03-23T01:54:07;17.19;49.11
76384;SHT30;65204;48.606;7.598;2023-03-23T01:54:39;17.18;49.06
76384;SHT30;65204;48.606;7.598;2023-03-23T01:55:10;17.16;49.18
76384;SHT30;65204;48.606;7.598;2023-03-23T01:55:43;17.16;49.18
76384;SHT30;65204;48.606;7.598;2023-03-23T01:56:22;17.11;49.25
76384;SHT30;65204;48.606;7.598;2023-03-23T01:57:00;17.14;49.26
76384;SHT30;65204;48.606;7.598;2023-03-23T01:57:32;17.14;49.28
76384;SHT30;65204;48.606;7.598;2023-03-23T01:58:03;17.12;49.42
76384;SHT30;65204;48.606;7.598;2023-03-23T01:58:37;17.12;49.46
76384;SHT30;65204;48.606;7.598;2023-03-23T01:59:08;17.12;49.51
76384;SHT30;65204;48.606;7.598;2023-03-23T01:59:43;17.12;49.36
76384;SHT30;65204;48.606;7.598;2023-03-23T02:00:15;17.14;49.37
76384;SHT30;65204;48.606;7.598;2023-03-23T02:00:46;17.14;49.30
76384;SHT30;65204;48.606;7.598;2023-03-23T02:01:18;17.15;49.36
76384;SHT30;65204;48.606;7.598;2023-03-23T02:01:49;17.16;49.19
76384;SHT30;65204;48.606;7.598;2023-03-23T02:02:24;17.20;49.22
76384;SHT30;65204;48.606;7.598;2023-03-23T02:02:55;17.20;49.20
76384;SHT30;65204;48.606;7.598;2023-03-23T02:03:27;17.20;49.41
76384;SHT30;65204;48.606;7.598;2023-03-23T02:03:57;17.18;49.51
76384;SHT30;65204;48.606;7.598;2023-03-23T02:04:29;17.20;49.15
76384;SHT30;65204;48.606;7.598;2023-03-23T02:05:06;17.18;49.16
76384;SHT30;65204;48.606;7.598;2023-03-23T02:05:40;17.18;49.22
76384;SHT30;65204;48.606;7.598;2023-03-23T02:06:11;17.19;49.12
76384;SHT30;65204;48.606;7.598;2023-03-23T02:06:43;17.18;49.24
76384;SHT30;65204;48.606;7.598;2023-03-23T02:07:17;17.18;49.26
76384;SHT30;65204;48.606;7.598;2023-03-23T02:07:49;17.19;49.22
76384;SHT30;65204;48.606;7.598;2023-03-23T02:08:20;17.19;49.32
76384;SHT30;65204;48.606;7.598;2023-03-23T02:08:51;17.18;49.32
76384;SHT30;65204;48.606;7.598;2023-03-23T02:09:23;17.20;49.11
76384;SHT30;65204;48.606;7.598;2023-03-23T02:09:55;17.20;49.11
76384;SHT30;65204;48.606;7.598;2023-03-23T02:10:25;17.19;49.05
76384;SHT30;65204;48.606;7.598;2023-03-23T02:10:56;17.19;49.19
76384;SHT30;65204;48.606;7.598;2023-03-23T02:11:26;17.22;49.21
76384;SHT30;65204;48.606;7.598;2023-03-23T02:11:57;17.23;49.24
76384;SHT30;65204;48.606;7.598;2023-03-23T02:12:27;17.20;49.34
76384;SHT30;65204;48.606;7.598;2023-03-23T02:12:59;17.20;49.15
76384;SHT30;65204;48.606;7.598;2023-03-23T02:13:30;17.19;49.30
76384;SHT30;65204;48.606;7.598;2023-03-23T02:14:01;17.22;49.29
76384;SHT30;65204;48.606;7.598;2023-03-23T02:14:35;17.20;49.28
76384;SHT30;65204;48.606;7.598;2023-03-23T02:15:05;17.22;49.33
76384;SHT30;65204;48.606;7.598;2023-03-23T02:16:22;17.20;49.28
76384;SHT30;65204;48.606;7.598;2023-03-23T02:17:45;17.19;49.12
76384;SHT30;65204;48.606;7.598;2023-03-23T02:18:26;17.22;49.12
76384;SHT30;65204;48.606;7.598;2023-03-23T02:20:59;17.20;49.32
76384;SHT30;65204;48.606;7.598;2023-03-23T02:22:06;17.20;49.26
76384;SHT30;65204;48.606;7.598;2023-03-23T02:24:57;17.15;49.54
76384;SHT30;65204;48.606;7.598;2023-03-23T02:25:58;17.12;49.59
76384;SHT30;65204;48.606;7.598;2023-03-23T02:27:07;17.08;49.67
76384;SHT30;65204;48.606;7.598;2023-03-23T02:27:50;17.08;50.03
76384;SHT30;65204;48.606;7.598;2023-03-23T02:30:49;17.05;50.30
76384;SHT30;65204;48.606;7.598;2023-03-23T02:32:31;17.02;50.25
76384;SHT30;65204;48.606;7.598;2023-03-23T02:33:17;17.02;50.25
76384;SHT30;65204;48.606;7.598;2023-03-23T02:34:29;17.02;50.59
76384;SHT30;65204;48.606;7.598;2023-03-23T02:35:07;17.04;50.06
76384;SHT30;65204;48.606;7.598;2023-03-23T02:35:47;17.04;50.34
76384;SHT30;65204;48.606;7.598;2023-03-23T02:36:38;17.06;50.47
76384;SHT30;65204;48.606;7.598;2023-03-23T02:37:38;17.05;50.13
76384;SHT30;65204;48.606;7.598;2023-03-23T02:38:16;17.04;50.28
76384;SHT30;65204;48.606;7.598;2023-03-23T02:39:05;17.06;50.29
76384;SHT30;65204;48.606;7.598;2023-03-23T02:39:46;17.04;50.10
76384;SHT30;65204;48.606;7.598;2023-03-23T02:40:24;17.04;50.28
76384;SHT30;65204;48.606;7.598;2023-03-23T02:40:59;17.02;50.17
76384;SHT30;65204;48.606;7.598;2023-03-23T02:41:36;17.06;50.16
76384;SHT30;65204;48.606;7.598;2023-03-23T02:42:09;17.04;50.18
76384;SHT30;65204;48.606;7.598;2023-03-23T02:42:41;17.05;50.36
76384;SHT30;65204;48.606;7.598;2023-03-23T02:43:16;17.05;50.21
76384;SHT30;65204;48.606;7.598;2023-03-23T02:43:49;17.05;50.28
76384;SHT30;65204;48.606;7.598;2023-03-23T02:44:22;17.05;50.14
76384;SHT30;65204;48.606;7.598;2023-03-23T02:44:54;17.06;50.79
76384;SHT30;65204;48.606;7.598;2023-03-23T02:45:28;17.06;50.49
76384;SHT30;65204;48.606;7.598;2023-03-23T02:45:59;17.06;50.18
76384;SHT30;65204;48.606;7.598;2023-03-23T02:46:31;17.05;50.15
76384;SHT30;65204;48.606;7.598;2023-03-23T02:47:04;17.05;50.41
76384;SHT30;65204;48.606;7.598;2023-03-23T02:47:37;17.06;50.36
76384;SHT30;65204;48.606;7.598;2023-03-23T02:48:10;17.06;50.20
76384;SHT30;65204;48.606;7.598;2023-03-23T02:48:43;17.06;50.23
76384;SHT30;65204;48.606;7.598;2023-03-23T02:49:15;17.08;50.29
76384;SHT30;65204;48.606;7.598;2023-03-23T02:49:50;17.06;50.17
76384;SHT30;65204;48.606;7.598;2023-03-23T02:50:24;17.08;50.24
76384;SHT30;65204;48.606;7.598;2023-03-23T02:50:56;17.08;50.23
76384;SHT30;65204;48.606;7.598;2023-03-23T02:51:28;17.05;50.36
76384;SHT30;65204;48.606;7.598;2023-03-23T02:52:00;17.06;50.11
76384;SHT30;65204;48.606;7.598;2023-03-23T02:52:33;17.04;50.28
76384;SHT30;65204;48.606;7.598;2023-03-23T02:53:08;17.04;50.36
76384;SHT30;65204;48.606;7.598;2023-03-23T02:53:41;17.02;50.43
76384;SHT30;65204;48.606;7.598;2023-03-23T02:54:14;17.04;50.34
76384;SHT30;65204;48.606;7.598;2023-03-23T02:54:48;17.05;50.40
76384;SHT30;65204;48.606;7.598;2023-03-23T02:55:21;17.02;50.39
76384;SHT30;65204;48.606;7.598;2023-03-23T02:55:56;17.02;50.28
76384;SHT30;65204;48.606;7.598;2023-03-23T02:56:28;17.01;50.54
76384;SHT30;65204;48.606;7.598;2023-03-23T02:56:59;17.01;50.30
76384;SHT30;65204;48.606;7.598;2023-03-23T02:57:31;17.01;50.24
76384;SHT30;65204;48.606;7.598;2023-03-23T02:58:01;17.01;50.37
76384;SHT30;65204;48.606;7.598;2023-03-23T02:58:33;16.99;50.62
76384;SHT30;65204;48.606;7.598;2023-03-23T02:59:03;16.98;50.61
76384;SHT30;65204;48.606;7.598;2023-03-23T02:59:34;16.99;50.59
76384;SHT30;65204;48.606;7.598;2023-03-23T03:00:05;16.99;50.47
76384;SHT30;65204;48.606;7.598;2023-03-23T03:00:45;17.01;50.37
76384;SHT30;65204;48.606;7.598;2023-03-23T03:02:26;16.98;50.57
76384;SHT30;65204;48.606;7.598;2023-03-23T03:02:57;16.95;50.46
76384;SHT30;65204;48.606;7.598;2023-03-23T03:03:29;16.96;50.76
76384;SHT30;65204;48.606;7.598;2023-03-23T03:04:07;16.96;50.85
76384;SHT30;65204;48.606;7.598;2023-03-23T03:04:41;16.96;50.82
76384;SHT30;65204;48.606;7.598;2023-03-23T03:06:14;16.95;50.82
76384;SHT30;65204;48.606;7.598;2023-03-23T03:08:57;16.88;50.98
76384;SHT30;65204;48.606;7.598;2023-03-23T03:09:55;16.88;50.99
76384;SHT30;65204;48.606;7.598;2023-03-23T03:10:32;16.85;51.31
76384;SHT30;65204;48.606;7.598;2023-03-23T03:11:14;16.88;51.22
76384;SHT30;65204;48.606;7.598;2023-03-23T03:11:49;16.85;51.36
76384;SHT30;65204;48.606;7.598;2023-03-23T03:12:46;16.84;51.26
76384;SHT30;65204;48.606;7.598;2023-03-23T03:14:13;16.85;50.77
76384;SHT30;65204;48.606;7.598;2023-03-23T03:14:58;16.85;51.47
76384;SHT30;65204;48.606;7.598;2023-03-23T03:17:26;16.78;51.33
76384;SHT30;65204;48.606;7.598;2023-03-23T03:18:06;16.79;51.33
76384;SHT30;65204;48.606;7.598;2023-03-23T03:19:32;16.77;51.25
76384;SHT30;65204;48.606;7.598;2023-03-23T03:20:06;16.74;51.29
76384;SHT30;65204;48.606;7.598;2023-03-23T03:20:45;16.75;51.37
76384;SHT30;65204;48.606;7.598;2023-03-23T03:21:17;16.74;51.62
76384;SHT30;65204;48.606;7.598;2023-03-23T03:21:50;16.71;51.59
76384;SHT30;65204;48.606;7.598;2023-03-23T03:22:23;16.71;51.70
76384;SHT30;65204;48.606;7.598;2023-03-23T03:22:59;16.69;51.39
76384;SHT30;65204;48.606;7.598;2023-03-23T03:23:32;16.71;51.69
76384;SHT30;65204;48.606;7.598;2023-03-23T03:24:04;16.71;51.57
76384;SHT30;65204;48.606;7.598;2023-03-23T03:24:37;16.71;51.39
76384;SHT30;65204;48.606;7.598;2023-03-23T03:25:10;16.72;51.52
76384;SHT30;65204;48.606;7.598;2023-03-23T03:25:45;16.74;51.41
76384;SHT30;65204;48.606;7.598;2023-03-23T03:26:17;16.72;51.49
76384;SHT30;65204;48.606;7.598;2023-03-23T03:26:52;16.74;51.58
76384;SHT30;65204;48.606;7.598;2023-03-23T03:27:25;16.71;51.52
76384;SHT30;65204;48.606;7.598;2023-03-23T03:27:56;16.71;51.41
76384;SHT30;65204;48.606;7.598;2023-03-23T03:28:27;16.74;51.40
76384;SHT30;65204;48.606;7.598;2023-03-23T03:28:57;16.75;51.48
76384;SHT30;65204;48.606;7.598;2023-03-23T03:29:30;16.77;51.48
76384;SHT30;65204;48.606;7.598;2023-03-23T03:30:07;16.72;51.40
76384;SHT30;65204;48.606;7.598;2023-03-23T03:30:40;16.74;51.44
76384;SHT30;65204;48.606;7.598;2023-03-23T03:31:17;16.72;51.34
76384;SHT30;65204;48.606;7.598;2023-03-23T03:31:51;16.74;51.39
76384;SHT30;65204;48.606;7.598;2023-03-23T03:32:32;16.71;51.46
76384;SHT30;65204;48.606;7.598;2023-03-23T03:33:04;16.74;51.62
76384;SHT30;65204;48.606;7.598;2023-03-23T03:33:34;16.69;51.46
76384;SHT30;65204;48.606;7.598;2023-03-23T03:34:06;16.71;51.68
76384;SHT30;65204;48.606;7.598;2023-03-23T03:34:36;16.72;51.51
76384;SHT30;65204;48.606;7.598;2023-03-23T03:35:07;16.72;51.26
76384;SHT30;65204;48.606;7.598;2023-03-23T03:35:40;16.72;51.57
76384;SHT30;65204;48.606;7.598;2023-03-23T03:36:18;16.72;51.56
76384;SHT30;65204;48.606;7.598;2023-03-23T03:36:49;16.72;51.70
76384;SHT30;65204;48.606;7.598;2023-03-23T03:37:20;16.74;51.63
76384;SHT30;65204;48.606;7.598;2023-03-23T03:37:51;16.74;51.49
76384;SHT30;65204;48.606;7.598;2023-03-23T03:38:22;16.74;51.80
76384;SHT30;65204;48.606;7.598;2023-03-23T03:38:52;16.75;51.64
76384;SHT30;65204;48.606;7.598;2023-03-23T03:39:23;16.74;51.54
76384;SHT30;65204;48.606;7.598;2023-03-23T03:39:53;16.75;51.59
76384;SHT30;65204;48.606;7.598;2023-03-23T03:40:23;16.75;51.65
76384;SHT30;65204;48.606;7.598;2023-03-23T03:40:55;16.78;51.65
76384;SHT30;65204;48.606;7.598;2023-03-23T03:41:26;16.78;51.41
76384;SHT30;65204;48.606;7.598;2023-03-23T03:41:56;16.77;51.77
76384;SHT30;65204;48.606;7.598;2023-03-23T03:42:26;16.78;51.64
76384;SHT30;65204;48.606;7.598;2023-03-23T03:42:57;16.77;51.73
76384;SHT30;65204;48.606;7.598;2023-03-23T03:43:27;16.78;51.47
76384;SHT30;65204;48.606;7.598;2023-03-23T03:43:57;16.77;51.45
76384;SHT30;65204;48.606;7.598;2023-03-23T03:44:28;16.77;51.58
76384;SHT30;65204;48.606;7.598;2023-03-23T03:44:58;16.77;51.92
76384;SHT30;65204;48.606;7.598;2023-03-23T03:45:28;16.74;51.85
76384;SHT30;65204;48.606;7.598;2023-03-23T03:45:59;16.77;51.76
76384;SHT30;65204;48.606;7.598;2023-03-23T03:46:29;16.78;51.64
76384;SHT30;65204;48.606;7.598;2023-03-23T03:47:01;16.77;51.53
76384;SHT30;65204;48.606;7.598;2023-03-23T03:47:31;16.79;51.72
76384;SHT30;65204;48.606;7.598;2023-03-23T03:48:02;16.78;51.78